createdAt,value
2019-01-10T00:01:40.153Z,-0.10
2019-01-10T00:04:09.135Z,-0.10
2019-01-10T00:06:38.124Z,-0.10
2019-01-10T00:09:08.089Z,-0.10
2019-01-10T00:11:42.363Z,-0.10
2019-01-10T00:14:11.373Z,-0.10
2019-01-10T00:16:40.320Z,0.00
2019-01-10T00:19:09.179Z,-0.10
2019-01-10T00:21:38.147Z,0.00
2019-01-10T00:24:07.126Z,-0.10
2019-01-10T00:26:38.661Z,-0.10
2019-01-10T00:29:07.777Z,-0.10
2019-01-10T00:31:36.950Z,-0.10
2019-01-10T00:34:05.777Z,-0.10
2019-01-10T00:36:34.749Z,-0.10
2019-01-10T00:39:05.067Z,-0.20
2019-01-10T00:41:34.221Z,-0.20
2019-01-10T00:44:03.141Z,-0.20
2019-01-10T00:46:32.160Z,-0.20
2019-01-10T00:49:01.054Z,-0.20
2019-01-10T00:51:29.962Z,-0.20
2019-01-10T00:53:58.850Z,-0.20
2019-01-10T00:56:27.826Z,-0.20
2019-01-10T00:58:56.705Z,-0.20
2019-01-10T01:01:25.648Z,-0.20
2019-01-10T01:03:54.898Z,-0.20
2019-01-10T01:06:23.826Z,-0.20
2019-01-10T01:08:52.833Z,-0.20
2019-01-10T01:11:21.802Z,-0.20
2019-01-10T01:13:50.665Z,-0.20
2019-01-10T01:16:19.607Z,-0.20
2019-01-10T01:18:50.432Z,-0.20
2019-01-10T01:21:19.365Z,-0.20
2019-01-10T01:23:48.415Z,-0.20
2019-01-10T01:26:17.326Z,-0.20
2019-01-10T01:28:46.288Z,-0.20
2019-01-10T01:31:15.226Z,-0.20
2019-01-10T01:33:44.049Z,-0.20
2019-01-10T01:36:12.894Z,-0.20
2019-01-10T01:38:41.838Z,-0.20
2019-01-10T01:41:10.751Z,-0.20
2019-01-10T01:43:39.725Z,-0.20
2019-01-10T01:46:08.685Z,-0.20
2019-01-10T01:48:37.541Z,-0.20
2019-01-10T01:51:06.524Z,-0.20
2019-01-10T01:53:35.445Z,-0.20
2019-01-10T01:56:04.705Z,-0.20
2019-01-10T01:58:33.617Z,-0.20
2019-01-10T02:01:02.853Z,-0.20
2019-01-10T02:03:31.698Z,-0.30
2019-01-10T02:06:00.585Z,-0.30
2019-01-10T02:08:29.525Z,-0.30
2019-01-10T02:10:58.449Z,-0.30
2019-01-10T02:13:27.360Z,-0.30
2019-01-10T02:15:56.307Z,-0.30
2019-01-10T02:18:25.149Z,-0.30
2019-01-10T02:20:54.178Z,-0.30
2019-01-10T02:23:23.213Z,-0.30
2019-01-10T02:25:52.113Z,-0.30
2019-01-10T02:28:21.032Z,-0.30
2019-01-10T02:30:49.998Z,-0.30
2019-01-10T02:33:19.752Z,-0.30
2019-01-10T02:35:48.704Z,-0.30
2019-01-10T02:38:17.770Z,-0.30
2019-01-10T02:40:46.719Z,-0.30
2019-01-10T02:43:15.724Z,-0.40
2019-01-10T02:45:44.613Z,-0.40
2019-01-10T02:48:13.554Z,-0.40
2019-01-10T02:50:42.537Z,-0.40
2019-01-10T02:53:11.480Z,-0.50
2019-01-10T02:55:40.398Z,-0.50
2019-01-10T02:58:09.441Z,-0.50
2019-01-10T03:00:38.445Z,-0.60
2019-01-10T03:03:07.618Z,-0.60
2019-01-10T03:05:36.518Z,-0.60
2019-01-10T03:08:05.549Z,-0.60
2019-01-10T03:10:34.576Z,-0.60
2019-01-10T03:13:03.793Z,-0.60
2019-01-10T03:15:32.721Z,-0.60
2019-01-10T03:18:01.695Z,-0.70
2019-01-10T03:20:30.630Z,-0.70
2019-01-10T03:22:59.657Z,-0.70
2019-01-10T03:25:28.535Z,-0.70
2019-01-10T03:27:57.367Z,-0.70
2019-01-10T03:30:26.337Z,-0.70
2019-01-10T03:32:55.387Z,-0.80
2019-01-10T03:35:24.325Z,-0.80
2019-01-10T03:37:53.247Z,-0.80
2019-01-10T03:40:22.824Z,-0.80
2019-01-10T03:42:52.051Z,-0.80
2019-01-10T03:45:22.513Z,-0.70
2019-01-10T03:47:51.509Z,-0.80
2019-01-10T03:50:20.818Z,-0.80
2019-01-10T03:52:49.839Z,-0.80
2019-01-10T03:55:18.849Z,-0.80
2019-01-10T03:57:47.895Z,-0.70
2019-01-10T04:00:24.904Z,-0.80
2019-01-10T04:02:53.826Z,-0.80
2019-01-10T04:05:23.199Z,-0.80
2019-01-10T04:07:52.279Z,-0.80
2019-01-10T04:10:21.379Z,-0.80
2019-01-10T04:12:50.431Z,-0.80
2019-01-10T04:15:19.481Z,-0.80
2019-01-10T04:17:48.460Z,-0.80
2019-01-10T04:20:18.642Z,-0.90
2019-01-10T04:22:47.885Z,-0.90
2019-01-10T04:25:17.052Z,-0.90
2019-01-10T04:27:46.010Z,-0.90
2019-01-10T04:30:22.279Z,-0.90
2019-01-10T04:32:51.194Z,-0.90
2019-01-10T04:35:20.049Z,-0.90
2019-01-10T04:37:49.053Z,-0.90
2019-01-10T04:40:21.817Z,-0.90
2019-01-10T04:42:50.763Z,-0.90
2019-01-10T04:45:19.773Z,-0.90
2019-01-10T04:47:48.716Z,-0.90
2019-01-10T04:50:17.685Z,-1.00
2019-01-10T04:52:47.136Z,-1.00
2019-01-10T04:55:16.361Z,-1.10
2019-01-10T04:57:45.234Z,-1.10
2019-01-10T05:00:22.313Z,-1.10
2019-01-10T05:02:51.289Z,-1.10
2019-01-10T05:05:20.296Z,-1.20
2019-01-10T05:07:49.246Z,-1.20
2019-01-10T05:10:18.377Z,-1.20
2019-01-10T05:12:47.343Z,-1.20
2019-01-10T05:15:16.551Z,-1.20
2019-01-10T05:17:45.458Z,-1.10
2019-01-10T05:20:16.860Z,-1.10
2019-01-10T05:22:45.869Z,-1.10
2019-01-10T05:25:14.882Z,-1.00
2019-01-10T05:27:43.805Z,-1.00
2019-01-10T05:30:30.613Z,-0.90
2019-01-10T05:32:59.503Z,-0.90
2019-01-10T05:35:28.420Z,-0.80
2019-01-10T05:37:57.381Z,-0.80
2019-01-10T05:40:26.309Z,-0.70
2019-01-10T05:42:55.161Z,-0.70
2019-01-10T05:45:24.047Z,-0.70
2019-01-10T05:47:52.871Z,-0.60
2019-01-10T05:50:21.782Z,-0.60
2019-01-10T05:52:50.650Z,-0.60
2019-01-10T05:55:21.282Z,-0.60
2019-01-10T05:57:50.197Z,-0.60
2019-01-10T06:00:25.026Z,-0.60
2019-01-10T06:02:54.483Z,-0.50
2019-01-10T06:05:23.405Z,-0.50
2019-01-10T06:07:52.426Z,-0.40
2019-01-10T06:10:26.347Z,-0.40
2019-01-10T06:12:55.404Z,-0.30
2019-01-10T06:15:24.546Z,-0.20
2019-01-10T06:17:53.789Z,-0.10
2019-01-10T06:20:23.303Z,-0.10
2019-01-10T06:22:52.326Z,-0.10
2019-01-10T06:25:21.313Z,-0.10
2019-01-10T06:27:51.148Z,-0.10
2019-01-10T06:30:22.375Z,-0.10
2019-01-10T06:32:51.238Z,-0.10
2019-01-10T06:35:20.262Z,-0.10
2019-01-10T06:37:49.257Z,-0.10
2019-01-10T06:40:20.345Z,-0.10
2019-01-10T06:42:49.386Z,-0.10
2019-01-10T06:45:20.194Z,-0.10
2019-01-10T06:47:49.186Z,0.00
2019-01-10T06:50:18.759Z,0.00
2019-01-10T06:52:47.782Z,0.00
2019-01-10T06:55:17.002Z,0.00
2019-01-10T06:57:45.969Z,-0.10
2019-01-10T07:00:19.998Z,-0.10
2019-01-10T07:02:49.142Z,-0.10
2019-01-10T07:05:20.131Z,-0.10
2019-01-10T07:07:56.420Z,-0.10
2019-01-10T07:10:28.906Z,-0.10
2019-01-10T07:12:57.785Z,-0.10
2019-01-10T07:15:27.001Z,-0.10
2019-01-10T07:17:55.933Z,-0.10
2019-01-10T07:20:24.941Z,-0.10
2019-01-10T07:22:54.746Z,-0.10
2019-01-10T07:25:23.746Z,-0.10
2019-01-10T07:27:52.749Z,-0.10
2019-01-10T07:30:35.449Z,-0.10
2019-01-10T07:32:57.620Z,-0.10
2019-01-10T07:35:26.577Z,-0.20
2019-01-10T07:37:56.419Z,-0.20
2019-01-10T07:40:26.160Z,-0.10
2019-01-10T07:42:55.149Z,-0.10
2019-01-10T07:45:25.707Z,-0.10
2019-01-10T07:47:54.802Z,0.00
2019-01-10T07:50:37.895Z,0.00
2019-01-10T07:53:08.387Z,0.10
2019-01-10T07:55:38.006Z,0.10
2019-01-10T07:58:06.912Z,0.20
2019-01-10T08:00:41.104Z,0.20
2019-01-10T08:03:10.100Z,0.20
2019-01-10T08:05:39.094Z,0.20
2019-01-10T08:08:16.873Z,0.20
2019-01-10T08:10:46.113Z,0.30
2019-01-10T08:13:15.208Z,0.40
2019-01-10T08:15:44.042Z,0.40
2019-01-10T08:18:13.025Z,0.50
2019-01-10T08:20:41.986Z,0.50
2019-01-10T08:23:11.129Z,0.60
2019-01-10T08:25:40.054Z,0.60
2019-01-10T08:28:09.041Z,0.60
2019-01-10T08:30:37.949Z,0.60
2019-01-10T08:33:06.956Z,0.60
2019-01-10T08:35:35.894Z,0.70
2019-01-10T08:38:04.887Z,0.70
2019-01-10T08:40:33.802Z,0.70
2019-01-10T08:43:02.757Z,0.80
2019-01-10T08:45:31.849Z,0.80
2019-01-10T08:48:00.805Z,0.80
2019-01-10T08:50:29.805Z,0.80
2019-01-10T08:52:58.737Z,0.80
2019-01-10T08:55:27.781Z,0.80
2019-01-10T08:57:58.289Z,0.90
2019-01-10T09:00:27.326Z,0.80
2019-01-10T09:02:56.507Z,0.90
2019-01-10T09:05:25.521Z,0.90
2019-01-10T09:07:54.821Z,0.90
2019-01-10T09:10:28.565Z,0.90
2019-01-10T09:12:57.513Z,0.90
2019-01-10T09:15:34.472Z,0.90
2019-01-10T09:17:57.311Z,1.00
2019-01-10T09:20:27.153Z,1.00
2019-01-10T09:22:56.520Z,1.00
2019-01-10T09:25:25.638Z,1.00
2019-01-10T09:27:54.593Z,1.00
2019-01-10T09:30:23.752Z,1.10
2019-01-10T09:32:52.834Z,1.10
2019-01-10T09:35:21.869Z,1.10
2019-01-10T09:37:50.889Z,1.20
2019-01-10T09:40:21.165Z,1.20
2019-01-10T09:42:57.486Z,1.10
2019-01-10T09:45:26.716Z,1.10
2019-01-10T09:47:55.758Z,1.00
2019-01-10T09:50:25.162Z,1.10
2019-01-10T09:52:54.713Z,1.10
2019-01-10T09:55:23.903Z,1.20
2019-01-10T09:57:53.093Z,1.30
2019-01-10T10:00:31.706Z,1.30
2019-01-10T10:03:01.526Z,1.30
2019-01-10T10:05:30.688Z,1.20
2019-01-10T10:08:00.083Z,1.20
2019-01-10T10:10:29.434Z,1.10
2019-01-10T10:13:05.384Z,1.10
2019-01-10T10:15:37.839Z,1.10
2019-01-10T10:18:09.308Z,0.90
2019-01-10T10:20:38.571Z,0.80
2019-01-10T10:23:07.598Z,0.70
2019-01-10T10:25:36.544Z,0.60
2019-01-10T10:28:05.591Z,0.60
2019-01-10T10:30:34.855Z,0.70
2019-01-10T10:33:04.146Z,0.70
2019-01-10T10:35:33.230Z,0.70
2019-01-10T10:38:02.389Z,0.60
2019-01-10T10:40:31.378Z,0.60
2019-01-10T10:43:02.798Z,0.60
2019-01-10T10:45:31.776Z,0.60
2019-01-10T10:48:00.633Z,0.60
2019-01-10T10:50:30.477Z,0.60
2019-01-10T10:52:59.677Z,0.60
2019-01-10T10:55:28.668Z,0.70
2019-01-10T10:57:57.928Z,0.70
2019-01-10T11:00:30.057Z,0.70
2019-01-10T11:02:59.599Z,0.80
2019-01-10T11:05:28.838Z,0.80
2019-01-10T11:07:57.798Z,0.90
2019-01-10T11:10:26.872Z,1.00
2019-01-10T11:12:56.281Z,1.10
2019-01-10T11:15:25.373Z,1.20
2019-01-10T11:17:55.109Z,1.30
2019-01-10T11:20:25.329Z,1.30
2019-01-10T11:22:58.566Z,1.30
2019-01-10T11:25:29.747Z,1.40
2019-01-10T11:27:59.180Z,1.40
2019-01-10T11:30:29.139Z,1.40
2019-01-10T11:33:00.060Z,1.40
2019-01-10T11:35:29.231Z,1.30
2019-01-10T11:37:58.300Z,1.20
2019-01-10T11:40:27.594Z,1.10
2019-01-10T11:42:56.692Z,1.10
2019-01-10T11:45:29.074Z,1.00
2019-01-10T11:47:59.338Z,1.00
2019-01-10T11:50:39.731Z,0.90
2019-01-10T11:53:08.777Z,0.90
2019-01-10T11:55:38.072Z,0.80
2019-01-10T11:58:07.064Z,0.80
2019-01-10T12:00:37.498Z,0.80
2019-01-10T12:03:08.655Z,0.70
2019-01-10T12:05:47.674Z,0.70
2019-01-10T12:08:12.894Z,0.80
2019-01-10T12:10:47.128Z,0.80
2019-01-10T12:13:16.096Z,0.90
2019-01-10T12:15:45.163Z,1.00
2019-01-10T12:18:14.565Z,1.10
2019-01-10T12:20:43.739Z,1.10
2019-01-10T12:23:13.749Z,1.20
2019-01-10T12:25:42.951Z,1.20
2019-01-10T12:28:12.702Z,1.30
2019-01-10T12:30:41.794Z,1.30
2019-01-10T12:33:10.957Z,1.40
2019-01-10T12:35:41.232Z,1.40
2019-01-10T12:38:12.993Z,1.50
2019-01-10T12:40:42.938Z,1.60
2019-01-10T12:43:12.035Z,1.60
2019-01-10T12:45:42.030Z,1.60
2019-01-10T12:48:13.594Z,1.60
2019-01-10T12:50:43.953Z,1.70
2019-01-10T12:53:15.221Z,1.70
2019-01-10T12:55:44.355Z,1.70
2019-01-10T12:58:14.359Z,1.70
2019-01-10T13:00:43.498Z,1.80
2019-01-10T13:03:12.552Z,1.80
2019-01-10T13:05:41.613Z,1.80
2019-01-10T13:08:11.395Z,1.80
2019-01-10T13:10:40.582Z,1.80
2019-01-10T13:13:13.230Z,1.90
2019-01-10T13:15:42.780Z,1.90
2019-01-10T13:18:12.257Z,1.90
2019-01-10T13:20:42.996Z,1.90
2019-01-10T13:23:12.203Z,1.90
2019-01-10T13:25:41.394Z,1.90
2019-01-10T13:28:10.759Z,1.90
2019-01-10T13:30:43.454Z,1.90
2019-01-10T13:33:12.639Z,1.90
2019-01-10T13:35:41.701Z,2.00
2019-01-10T13:38:11.530Z,2.00
2019-01-10T13:40:40.517Z,2.00
2019-01-10T13:43:10.325Z,2.00
2019-01-10T13:45:46.068Z,2.00
2019-01-10T13:48:25.580Z,2.00
2019-01-10T13:51:08.328Z,2.00
2019-01-10T13:53:38.148Z,2.00
2019-01-10T13:56:11.392Z,2.10
2019-01-10T13:58:41.914Z,2.00
2019-01-10T14:01:12.943Z,2.10
2019-01-10T14:03:43.309Z,2.10
2019-01-10T14:06:15.656Z,2.10
2019-01-10T14:08:45.692Z,2.20
2019-01-10T14:11:28.385Z,2.20
2019-01-10T14:13:57.405Z,2.20
2019-01-10T14:16:28.790Z,2.20
2019-01-10T14:18:59.133Z,2.20
2019-01-10T14:21:28.297Z,2.20
2019-01-10T14:23:57.269Z,2.20
2019-01-10T14:26:29.579Z,2.20
2019-01-10T14:28:59.726Z,2.20
2019-01-10T14:31:29.109Z,2.20
2019-01-10T14:33:58.183Z,2.20
2019-01-10T14:36:27.310Z,2.20
2019-01-10T14:38:56.909Z,2.20
2019-01-10T14:41:41.664Z,2.30
2019-01-10T14:44:10.824Z,2.30
2019-01-10T14:46:39.808Z,2.20
2019-01-10T14:49:09.307Z,2.30
2019-01-10T14:51:38.371Z,2.30
2019-01-10T14:54:07.494Z,2.30
2019-01-10T14:56:39.928Z,2.20
2019-01-10T14:59:08.933Z,2.20
2019-01-10T15:01:37.926Z,2.30
2019-01-10T15:04:07.370Z,2.20
2019-01-10T15:06:36.439Z,2.20
2019-01-10T15:09:08.780Z,2.20
2019-01-10T15:11:38.925Z,2.20
2019-01-10T15:14:09.176Z,2.20
2019-01-10T15:16:38.078Z,2.20
2019-01-10T15:19:07.373Z,2.20
2019-01-10T15:21:41.697Z,2.10
2019-01-10T15:24:12.253Z,2.10
2019-01-10T15:26:41.815Z,2.10
2019-01-10T15:29:10.725Z,2.10
2019-01-10T15:31:43.982Z,2.10
2019-01-10T15:34:13.631Z,2.10
2019-01-10T15:36:42.850Z,2.10
2019-01-10T15:39:12.473Z,2.10
2019-01-10T15:41:48.491Z,2.10
2019-01-10T15:44:17.542Z,2.10
2019-01-10T15:46:48.366Z,2.10
2019-01-10T15:49:17.649Z,2.10
2019-01-10T15:51:46.780Z,2.20
2019-01-10T15:54:15.677Z,2.20
2019-01-10T15:56:44.600Z,2.20
2019-01-10T15:59:14.916Z,2.30
2019-01-10T16:01:43.871Z,2.30
2019-01-10T16:04:12.891Z,2.40
2019-01-10T16:06:42.029Z,2.40
2019-01-10T16:09:15.425Z,2.40
2019-01-10T16:11:44.561Z,2.50
2019-01-10T16:14:15.449Z,2.50
2019-01-10T16:16:44.481Z,2.50
2019-01-10T16:19:13.475Z,2.50
2019-01-10T16:21:44.861Z,2.50
2019-01-10T16:24:13.705Z,2.50
2019-01-10T16:26:43.137Z,2.60
2019-01-10T16:29:14.213Z,2.60
2019-01-10T16:31:56.645Z,2.60
2019-01-10T16:34:25.506Z,2.70
2019-01-10T16:36:54.478Z,2.70
2019-01-10T16:39:24.426Z,2.70
2019-01-10T16:41:53.649Z,2.80
2019-01-10T16:44:22.560Z,2.80
2019-01-10T16:46:54.238Z,2.80
2019-01-10T16:49:23.412Z,2.80
2019-01-10T16:51:53.832Z,2.90
2019-01-10T16:54:23.149Z,2.90
2019-01-10T16:56:52.037Z,2.90
2019-01-10T16:59:21.011Z,2.90
2019-01-10T17:01:50.213Z,2.90
2019-01-10T17:04:19.033Z,2.90
2019-01-10T17:06:48.071Z,3.00
2019-01-10T17:09:17.773Z,3.00
2019-01-10T17:11:47.036Z,3.00
2019-01-10T17:14:16.021Z,3.00
2019-01-10T17:16:50.146Z,3.00
2019-01-10T17:19:15.712Z,3.00
2019-01-10T17:21:44.864Z,3.00
2019-01-10T17:24:13.848Z,3.00
2019-01-10T17:26:42.762Z,3.00
2019-01-10T17:29:12.195Z,3.00
2019-01-10T17:31:41.189Z,3.10
2019-01-10T17:34:10.021Z,3.10
2019-01-10T17:36:38.926Z,3.10
2019-01-10T17:39:09.143Z,3.20
2019-01-10T17:41:38.412Z,3.20
2019-01-10T17:44:07.729Z,3.20
2019-01-10T17:46:36.761Z,3.30
2019-01-10T17:49:06.003Z,3.20
2019-01-10T17:51:37.325Z,3.20
2019-01-10T17:54:06.771Z,3.20
2019-01-10T17:56:36.220Z,3.20
2019-01-10T17:59:05.357Z,3.30
2019-01-10T18:01:41.454Z,3.30
2019-01-10T18:04:11.250Z,3.30
2019-01-10T18:06:40.291Z,3.30
2019-01-10T18:09:10.135Z,3.30
2019-01-10T18:11:40.114Z,3.40
2019-01-10T18:14:10.422Z,3.40
2019-01-10T18:16:41.217Z,3.40
2019-01-10T18:19:11.167Z,3.40
2019-01-10T18:21:42.099Z,3.50
2019-01-10T18:24:12.186Z,3.50
2019-01-10T18:26:41.223Z,3.40
2019-01-10T18:29:12.234Z,3.40
2019-01-10T18:31:41.261Z,3.40
2019-01-10T18:34:14.582Z,3.40
2019-01-10T18:36:43.604Z,3.30
2019-01-10T18:39:12.613Z,3.30
2019-01-10T18:42:30.607Z,3.30
2019-01-10T18:44:59.686Z,3.30
2019-01-10T18:47:28.761Z,3.30
2019-01-10T18:49:58.384Z,3.30
2019-01-10T18:52:27.438Z,3.30
2019-01-10T18:55:00.317Z,3.30
2019-01-10T18:57:29.875Z,3.30
2019-01-10T19:00:19.629Z,3.40
2019-01-10T19:03:02.274Z,3.40
2019-01-10T19:05:32.756Z,3.30
2019-01-10T19:08:04.615Z,3.40
2019-01-10T19:10:35.481Z,3.40
2019-01-10T19:13:06.169Z,3.40
2019-01-10T19:15:37.230Z,3.40
2019-01-10T19:18:09.381Z,3.40
2019-01-10T19:20:39.397Z,3.50
2019-01-10T19:23:10.234Z,3.50
2019-01-10T19:25:41.582Z,3.50
2019-01-10T19:28:12.776Z,3.50
2019-01-10T19:31:17.899Z,3.50
2019-01-10T19:33:47.482Z,3.60
2019-01-10T19:36:16.597Z,3.60
2019-01-10T19:38:48.276Z,3.60
2019-01-10T19:41:18.249Z,3.60
2019-01-10T19:43:47.214Z,3.60
2019-01-10T19:46:16.234Z,3.60
2019-01-10T19:48:45.455Z,3.70
2019-01-10T19:51:15.031Z,3.70
2019-01-10T19:53:44.204Z,3.80
2019-01-10T19:56:13.751Z,3.80
2019-01-10T19:58:42.690Z,3.80
2019-01-10T20:01:12.982Z,3.80
2019-01-10T20:03:42.300Z,3.80
2019-01-10T20:06:13.145Z,3.80
2019-01-10T20:08:44.581Z,3.80
2019-01-10T20:11:14.116Z,3.80
2019-01-10T20:13:43.470Z,3.80
2019-01-10T20:16:13.682Z,3.80
2019-01-10T20:18:42.778Z,3.80
2019-01-10T20:21:11.726Z,3.80
2019-01-10T20:23:40.917Z,3.80
2019-01-10T20:26:10.333Z,3.80
2019-01-10T20:28:44.259Z,3.80
2019-01-10T20:31:23.635Z,3.90
2019-01-10T20:33:53.172Z,3.90
2019-01-10T20:36:26.453Z,3.90
2019-01-10T20:38:57.059Z,3.90
2019-01-10T20:41:31.809Z,3.90
2019-01-10T20:44:00.897Z,4.00
2019-01-10T20:46:32.598Z,4.00
2019-01-10T20:49:03.994Z,4.00
2019-01-10T20:51:33.275Z,4.00
2019-01-10T20:54:02.579Z,4.00
2019-01-10T20:56:32.272Z,4.10
2019-01-10T20:59:02.610Z,4.10
2019-01-10T21:01:37.318Z,4.10
2019-01-10T21:04:06.394Z,4.10
2019-01-10T21:06:36.625Z,4.10
2019-01-10T21:09:12.983Z,4.10
2019-01-10T21:11:45.058Z,4.10
2019-01-10T21:14:14.353Z,4.10
2019-01-10T21:16:43.895Z,4.10
2019-01-10T21:19:13.054Z,4.10
2019-01-10T21:21:42.190Z,4.20
2019-01-10T21:24:11.650Z,4.20
2019-01-10T21:26:41.965Z,4.30
2019-01-10T21:29:10.269Z,4.20
2019-01-10T21:31:40.078Z,4.20
2019-01-10T21:34:09.313Z,4.30
2019-01-10T21:36:39.488Z,4.20
2019-01-10T21:39:09.614Z,4.30
2019-01-10T21:41:38.709Z,4.30
2019-01-10T21:44:07.761Z,4.30
2019-01-10T21:46:36.707Z,4.30
2019-01-10T21:49:05.730Z,4.30
2019-01-10T21:51:34.694Z,4.30
2019-01-10T21:54:04.745Z,4.30
2019-01-10T21:56:33.784Z,4.20
2019-01-10T21:59:02.918Z,4.30
2019-01-10T22:01:37.220Z,4.30
2019-01-10T22:04:07.383Z,4.30
2019-01-10T22:06:36.461Z,4.30
2019-01-10T22:09:07.227Z,4.30
2019-01-10T22:11:36.335Z,4.30
2019-01-10T22:14:05.589Z,4.30
2019-01-10T22:16:34.575Z,4.20
2019-01-10T22:19:03.500Z,4.30
2019-01-10T22:21:32.429Z,4.20
2019-01-10T22:24:02.631Z,4.30
2019-01-10T22:26:32.306Z,4.30
2019-01-10T22:29:01.240Z,4.30
2019-01-10T22:31:30.951Z,4.30
2019-01-10T22:33:59.929Z,4.20
2019-01-10T22:36:29.035Z,4.20
2019-01-10T22:38:58.406Z,4.20
2019-01-10T22:41:27.454Z,4.20
2019-01-10T22:43:56.482Z,4.20
2019-01-10T22:46:25.417Z,4.20
2019-01-10T22:48:54.877Z,4.20
2019-01-10T22:51:24.266Z,4.20
2019-01-10T22:53:53.149Z,4.20
2019-01-10T22:56:22.115Z,4.20
2019-01-10T22:58:51.522Z,4.20
2019-01-10T23:01:49.142Z,4.20
2019-01-10T23:04:30.617Z,4.30
2019-01-10T23:07:01.405Z,4.30
2019-01-10T23:09:30.702Z,4.30
2019-01-10T23:12:07.080Z,4.30
2019-01-10T23:14:36.445Z,4.20
2019-01-10T23:17:06.546Z,4.20
2019-01-10T23:19:38.714Z,4.20
2019-01-10T23:22:13.489Z,4.20
2019-01-10T23:24:43.326Z,4.10
2019-01-10T23:27:12.241Z,4.10
2019-01-10T23:29:41.492Z,4.10
2019-01-10T23:32:16.678Z,4.10
2019-01-10T23:34:49.729Z,4.00
2019-01-10T23:37:23.242Z,4.00
2019-01-10T23:39:53.112Z,4.00
2019-01-10T23:42:22.117Z,4.00
2019-01-10T23:44:52.202Z,4.00
2019-01-10T23:47:21.254Z,4.00
2019-01-10T23:49:50.148Z,4.00
2019-01-10T23:52:18.994Z,4.10
2019-01-10T23:54:47.893Z,4.10
2019-01-10T23:57:16.786Z,4.10
2019-01-10T23:59:46.494Z,4.10
